Rankin Inlet, Canada
Current Conditions -  °F | °C
As of 11:00 PM on Wednesday 22 Oct 2014 (Local Time) from CYRT Reporting Station
Overcast Overcast  
Wind Chill: 18°   Ceiling: 400
Heat Index: 28°   Visibility: 8mi
Dew Point: 27°   Wind: 13mph
Humidity: 93%   Direction: 60°ENE
Pressure: 30.03"   Gusts: 21mph
Location:  62.81°N, 92.08°W
Report Text: CYRT 230400Z 06011G18KT 8SM OVC004 M02/M03 A3003 RMK ST8 SLP170
Loading
Personal Weather Stations






























Interactive Weather Map
Tropical Storm Tracking
New forecast layout! Learn more

10-Day Weather Forecast

Advertisements
Track Severe Weather on mobile